createdAt,value
2018-08-24T19:40:03.725Z,8.30
2018-08-24T19:42:31.016Z,9.10
2018-08-24T19:44:58.316Z,7.73
2018-08-24T19:47:31.466Z,9.63
2018-08-24T19:49:58.699Z,7.77
2018-08-24T19:52:25.935Z,8.33
2018-08-24T19:54:53.204Z,7.63
2018-08-24T19:57:26.075Z,7.63
2018-08-24T19:59:53.315Z,9.27
2018-08-24T20:02:20.576Z,7.70
2018-08-24T20:04:47.824Z,7.23
2018-08-24T20:07:20.950Z,7.80
2018-08-24T20:09:53.953Z,7.47
2018-08-24T20:12:21.197Z,7.43
2018-08-24T20:14:54.271Z,6.90
2018-08-24T20:17:28.970Z,7.00
2018-08-24T20:19:56.385Z,8.80
2018-08-24T20:22:23.673Z,7.00
2018-08-24T20:24:50.938Z,7.67
2018-08-24T20:27:18.232Z,7.40
2018-08-24T20:29:45.577Z,7.37
2018-08-24T20:32:12.930Z,6.90
2018-08-24T20:34:40.234Z,6.60
2018-08-24T20:37:07.497Z,7.80
2018-08-24T20:39:34.762Z,6.10
2018-08-24T20:42:02.046Z,8.30
2018-08-24T20:44:29.305Z,6.73
2018-08-24T20:46:56.583Z,7.53
2018-08-24T20:49:23.849Z,7.47
2018-08-24T20:51:51.233Z,6.60
2018-08-24T20:54:18.525Z,6.10
2018-08-24T20:56:45.805Z,6.33
2018-08-24T20:59:13.061Z,6.77
2018-08-24T21:01:40.347Z,5.73
2018-08-24T21:04:07.631Z,5.60
2018-08-24T21:06:35.138Z,6.83
2018-08-24T21:09:02.505Z,6.80
2018-08-24T21:11:29.783Z,5.40
2018-08-24T21:13:57.079Z,6.60
2018-08-24T21:16:24.349Z,6.23
2018-08-24T21:18:51.666Z,6.13
2018-08-24T21:21:18.913Z,6.30
2018-08-24T21:23:46.290Z,5.67
2018-08-24T21:26:13.552Z,6.00
2018-08-24T21:28:40.949Z,5.60
2018-08-24T21:31:08.225Z,6.17
2018-08-24T21:33:35.485Z,5.90
2018-08-24T21:36:02.809Z,6.43
2018-08-24T21:38:30.094Z,5.37
2018-08-24T21:41:00.935Z,5.60
2018-08-24T21:43:28.488Z,6.60
2018-08-24T21:45:55.761Z,6.80
2018-08-24T21:48:23.042Z,5.50
2018-08-24T21:50:50.313Z,5.03
2018-08-24T21:53:17.585Z,5.47
2018-08-24T21:55:44.888Z,6.10
2018-08-24T21:58:12.145Z,6.00
2018-08-24T22:00:41.177Z,5.10
2018-08-24T22:03:08.962Z,5.90
2018-08-24T22:05:36.254Z,5.00
2018-08-24T22:08:03.484Z,5.90
2018-08-24T22:10:30.721Z,5.83
2018-08-24T22:12:57.910Z,5.27
2018-08-24T22:15:25.138Z,6.00
2018-08-24T22:17:52.633Z,5.30
2018-08-24T22:20:19.845Z,4.10
2018-08-24T22:22:47.105Z,4.70
2018-08-24T22:25:14.338Z,5.50
2018-08-24T22:27:41.549Z,5.00
2018-08-24T22:30:08.776Z,5.43
2018-08-24T22:32:35.970Z,5.37
2018-08-24T22:35:03.186Z,5.77
2018-08-24T22:37:30.421Z,4.83
2018-08-24T22:39:57.633Z,5.10
2018-08-24T22:42:24.834Z,5.50
2018-08-24T22:44:52.049Z,4.50
2018-08-24T22:47:19.243Z,5.53
2018-08-24T22:49:46.457Z,4.40
2018-08-24T22:52:13.677Z,4.70
2018-08-24T22:54:40.958Z,3.40
2018-08-24T22:57:08.428Z,4.90
2018-08-24T22:59:35.950Z,5.10
2018-08-24T23:02:03.623Z,4.73
2018-08-24T23:04:30.917Z,4.27
2018-08-24T23:06:58.193Z,5.10
2018-08-24T23:09:25.460Z,4.03
2018-08-24T23:11:52.749Z,4.23
2018-08-24T23:14:20.013Z,3.90
2018-08-24T23:16:47.289Z,4.37
2018-08-24T23:19:14.549Z,3.30
2018-08-24T23:21:41.814Z,4.20
2018-08-24T23:24:09.077Z,5.03
2018-08-24T23:26:36.364Z,4.60
2018-08-24T23:29:04.065Z,4.47
2018-08-24T23:31:31.330Z,5.13
2018-08-24T23:33:58.634Z,5.63
2018-08-24T23:36:27.387Z,4.80
2018-08-24T23:38:54.666Z,4.77
2018-08-24T23:41:22.044Z,4.50
2018-08-24T23:43:49.398Z,4.70
2018-08-24T23:46:16.629Z,4.57
2018-08-24T23:48:43.909Z,3.90
2018-08-24T23:51:11.121Z,5.10
2018-08-24T23:53:38.483Z,4.63
2018-08-24T23:56:05.725Z,4.20
2018-08-24T23:58:32.946Z,4.47
